Latest Weather Observations for Darwin Harbour

IDD60801

Issued at 9:01 am CST Thursday 9 February 2023 (issued every 10 minutes, with the page automatically refreshed every 10 minutes)

About weather observations | Map of weather stations | Latest weather observations for NT | Other Formats
Station Details ID: 014072 Name: DARWIN NTC AWS Lat: -12.47 Lon: 130.85 Height: 0.0 m
Data from the previous 72 hours. | See also: Recent months for locations in Northern Territory
Date/Time
CST
Temp
°C
App
Temp
°C
Dew
Point
°C
Rel
Hum
%
Delta-T
°C
Wind Press
QNH
hPa
Press
MSL
hPa
Rain since
9am
mm
Dir  Spd
km/h
Gust
km/h
Spd
kts
Gust
kts
09/09:00am - - - - - W 19 24 10 13 - - -
09/08:30am - - - - - WSW 24 33 13 18 - - -
09/08:00am - - - - - WSW 20 26 11 14 - - -
09/07:30am - - - - - WSW 20 24 11 13 - - -
09/07:00am - - - - - W 19 28 10 15 - - -
09/06:30am - - - - - W 20 30 11 16 - - -
09/06:00am - - - - - W 19 24 10 13 - - -
09/05:30am - - - - - W 22 30 12 16 - - -
09/05:00am - - - - - W 19 24 10 13 - - -
09/04:30am - - - - - W 17 22 9 12 - - -
09/04:00am - - - - - W 17 24 9 13 - - -
09/03:30am - - - - - W 17 28 9 15 - - -
09/03:00am - - - - - W 15 22 8 12 - - -
09/02:30am - - - - - W 17 24 9 13 - - -
09/02:00am - - - - - W 15 22 8 12 - - -
09/01:30am - - - - - W 19 26 10 14 - - -
09/01:00am - - - - - W 20 28 11 15 - - -
09/12:30am - - - - - W 19 28 10 15 - - -
09/12:00am - - - - - W 15 22 8 12 - - -
 
Date/Time
CST
Temp
°C
App
Temp
°C
Dew
Point
°C
Rel
Hum
%
Delta-T
°C
Wind Press
QNH
hPa
Press
MSL
hPa
Rain since
9am
mm
Dir  Spd
km/h
Gust
km/h
Spd
kts
Gust
kts
08/11:30pm - - - - - W 15 22 8 12 - - -
08/11:00pm - - - - - W 13 19 7 10 - - -
08/10:30pm - - - - - W 15 22 8 12 - - -
08/10:00pm - - - - - W 13 17 7 9 - - -
08/09:30pm - - - - - W 13 19 7 10 - - -
08/09:00pm - - - - - W 13 17 7 9 - - -
08/08:30pm - - - - - W 13 19 7 10 - - -
08/08:00pm - - - - - W 15 20 8 11 - - -
08/07:30pm - - - - - W 15 20 8 11 - - -
08/07:00pm - - - - - W 22 28 12 15 - - -
08/06:30pm - - - - - W 24 28 13 15 - - -
08/06:00pm - - - - - W 24 28 13 15 - - -
08/05:30pm - - - - - W 22 30 12 16 - - -
08/05:00pm - - - - - W 20 26 11 14 - - -
08/04:30pm - - - - - W 20 28 11 15 - - -
08/04:00pm - - - - - W 20 30 11 16 - - -
08/03:30pm - - - - - W 22 30 12 16 - - -
08/03:00pm - - - - - W 20 28 11 15 - - -
08/02:30pm - - - - - W 20 26 11 14 - - -
08/02:00pm - - - - - W 17 22 9 12 - - -
08/01:30pm - - - - - WSW 17 24 9 13 1003.9 1003.8 -
08/01:00pm - - - - - WSW 15 19 8 10 1004.4 1004.3 -
08/12:30pm - - - - - WSW 15 19 8 10 - - -
08/12:00pm - - - - - WSW 15 20 8 11 1005.0 1004.9 -
08/11:30am - - - - - WSW 19 24 10 13 1005.1 1005.0 -
08/11:00am - - - - - WSW 19 24 10 13 1005.2 1005.1 -
08/10:30am - - - - - WSW 20 28 11 15 1005.4 1005.3 -
08/10:00am - - - - - WSW 20 26 11 14 1005.6 1005.5 -
08/09:30am - - - - - WSW 19 28 10 15 1005.6 1005.5 -
08/09:00am - - - - - WSW 13 19 7 10 1005.6 1005.5 -
08/08:30am - - - - - WSW 11 17 6 9 1005.6 1005.5 -
08/08:00am - - - - - W 13 19 7 10 1005.4 1005.3 -
08/07:30am - - - - - W 13 20 7 11 1005.0 1004.9 -
08/07:00am - - - - - W 13 19 7 10 1004.7 1004.6 -
08/06:30am - - - - - W 15 20 8 11 1004.6 1004.5 -
08/06:00am - - - - - W 17 20 9 11 1004.2 1004.1 -
08/05:30am - - - - - W 19 24 10 13 1004.1 1004.0 -
08/05:00am - - - - - W 19 24 10 13 1003.9 1003.8 -
08/04:30am - - - - - WNW 17 20 9 11 1003.7 1003.6 -
08/04:00am - - - - - WNW 15 20 8 11 1004.0 1003.9 -
08/03:30am - - - - - W 13 20 7 11 1004.0 1003.9 -
08/03:00am - - - - - W 17 22 9 12 1004.2 1004.1 -
08/02:30am - - - - - W 15 20 8 11 1004.4 1004.3 -
08/02:00am - - - - - W 13 19 7 10 1004.8 1004.7 -
08/01:30am - - - - - W 15 19 8 10 1005.2 1005.1 -
08/01:00am - - - - - W 15 19 8 10 1005.6 1005.5 -
08/12:30am - - - - - W 15 22 8 12 1005.9 1005.8 -
08/12:00am - - - - - W 13 17 7 9 1006.4 1006.3 -
 
Date/Time
CST
Temp
°C
App
Temp
°C
Dew
Point
°C
Rel
Hum
%
Delta-T
°C
Wind Press
QNH
hPa
Press
MSL
hPa
Rain since
9am
mm
Dir  Spd
km/h
Gust
km/h
Spd
kts
Gust
kts
07/11:30pm - - - - - W 13 17 7 9 1006.4 1006.3 -
07/11:00pm - - - - - W 15 19 8 10 1006.4 1006.3 -
07/10:30pm - - - - - W 15 20 8 11 1006.3 1006.2 -
07/10:00pm - - - - - W 13 19 7 10 1006.0 1005.9 -
07/09:30pm - - - - - W 15 20 8 11 1005.9 1005.8 -
07/09:00pm - - - - - W 15 19 8 10 1005.8 1005.7 -
07/08:30pm - - - - - WNW 15 22 8 12 1005.7 1005.6 -
07/08:00pm - - - - - W 15 20 8 11 1005.2 1005.1 -
07/07:30pm - - - - - W 15 20 8 11 1005.0 1004.9 -
07/07:00pm - - - - - W 15 19 8 10 1004.6 1004.5 -
07/06:30pm - - - - - W 17 20 9 11 1004.3 1004.2 -
07/06:00pm - - - - - W 20 26 11 14 1004.0 1003.9 -
07/05:30pm - - - - - W 20 26 11 14 1003.8 1003.7 -
07/05:00pm - - - - - W 22 28 12 15 1003.4 1003.3 -
07/04:30pm - - - - - W 20 28 11 15 - - -
07/04:00pm - - - - - W 20 26 11 14 - - -
07/03:30pm - - - - - W 20 26 11 14 - - -
07/03:00pm - - - - - W 15 20 8 11 - - -
07/02:30pm - - - - - W 20 28 11 15 1004.1 1004.0 -
07/02:00pm - - - - - WNW 17 26 9 14 1004.3 1004.2 -
07/01:30pm - - - - - WNW 17 24 9 13 1004.6 1004.5 -
07/01:00pm - - - - - WNW 11 17 6 9 1004.9 1004.8 -
07/12:30pm - - - - - WNW 7 17 4 9 1005.3 1005.2 -
07/12:00pm - - - - - W 6 7 3 4 1005.7 1005.6 -
07/11:30am - - - - - SW 4 6 2 3 1006.0 1005.9 -
07/11:00am - - - - - WSW 4 9 2 5 1006.3 1006.2 -
07/10:30am - - - - - SSW 4 7 2 4 1006.7 1006.6 -
07/10:00am - - - - - SW 6 6 3 3 1006.9 1006.8 -
07/09:30am - - - - - WSW 4 6 2 3 1006.9 1006.8 -
07/09:00am - - - - - WSW 6 9 3 5 1006.7 1006.6 -
07/08:30am - - - - - WSW 7 11 4 6 1006.6 1006.5 -
07/08:00am - - - - - W 9 13 5 7 1006.2 1006.1 -
07/07:30am - - - - - W 9 13 5 7 1005.9 1005.8 -
07/07:00am - - - - - W 9 13 5 7 1005.7 1005.6 -
07/06:30am - - - - - WSW 9 13 5 7 1005.6 1005.5 -
07/06:00am - - - - - WSW 11 15 6 8 1005.5 1005.4 -
07/05:30am - - - - - SW 9 13 5 7 1005.3 1005.2 -
07/05:00am - - - - - SW 9 13 5 7 1005.0 1004.9 -
07/04:30am - - - - - SW 9 13 5 7 1004.7 1004.6 -
07/04:00am - - - - - SW 9 13 5 7 1004.7 1004.6 -
07/03:30am - - - - - WSW 9 13 5 7 1005.0 1004.9 -
07/03:00am - - - - - W 11 15 6 8 1005.1 1005.0 -
07/02:30am - - - - - W 11 17 6 9 1005.3 1005.2 -
07/02:00am - - - - - WNW 7 13 4 7 1005.9 1005.8 -
07/01:30am - - - - - W 11 17 6 9 1006.2 1006.1 -
07/01:00am - - - - - W 11 15 6 8 1006.4 1006.3 -
07/12:30am - - - - - W 11 15 6 8 1006.8 1006.7 -
07/12:00am - - - - - WNW 11 15 6 8 1006.9 1006.8 -
 
Date/Time
CST
Temp
°C
App
Temp
°C
Dew
Point
°C
Rel
Hum
%
Delta-T
°C
Wind Press
QNH
hPa
Press
MSL
hPa
Rain since
9am
mm
Dir  Spd
km/h
Gust
km/h
Spd
kts
Gust
kts
06/11:30pm - - - - - WNW 11 17 6 9 1007.0 1006.9 -
06/11:00pm - - - - - WNW 15 20 8 11 1007.0 1006.9 -
06/10:30pm - - - - - W 15 20 8 11 1006.9 1006.8 -
06/10:00pm - - - - - W 13 19 7 10 1006.7 1006.6 -
06/09:30pm - - - - - NW 9 17 5 9 1006.6 1006.5 -
06/09:00pm - - - - - NW 7 13 4 7 1006.5 1006.4 -
06/08:30pm - - - - - NW 9 15 5 8 1006.3 1006.2 -
06/08:00pm - - - - - NW 9 17 5 9 1006.0 1005.9 -
06/07:30pm - - - - - NNW 11 20 6 11 1006.0 1005.9 -
06/07:00pm - - - - - NW 13 24 7 13 1005.6 1005.5 -
06/06:30pm - - - - - NE 9 20 5 11 1005.2 1005.1 -
06/06:00pm - - - - - N 6 9 3 5 1005.0 1004.9 -
06/05:30pm - - - - - W 19 26 10 14 1004.4 1004.3 -
06/05:00pm - - - - - SW 30 39 16 21 1003.8 1003.7 -
06/04:38pm - - - - - SW 30 44 16 24 1004.0 1003.9 -
06/04:30pm - - - - - WNW 17 24 9 13 1004.0 1003.9 -
06/04:00pm - - - - - WNW 17 26 9 14 1004.0 1003.9 -
06/03:30pm - - - - - WNW 19 28 10 15 1004.2 1004.1 -
06/03:00pm - - - - - WNW 15 20 8 11 1004.5 1004.4 -
06/02:30pm - - - - - W 13 17 7 9 1004.7 1004.6 -
06/02:00pm - - - - - WNW 13 17 7 9 1005.2 1005.1 -
06/01:30pm - - - - - WNW 19 24 10 13 1005.7 1005.6 -
06/01:00pm - - - - - WNW 17 22 9 12 1006.2 1006.1 -
06/12:30pm - - - - - WNW 11 19 6 10 1006.6 1006.5 -
06/12:00pm - - - - - WNW 11 17 6 9 1007.0 1006.9 -
06/11:30am - - - - - W 6 11 3 6 1007.4 1007.3 -
06/11:00am - - - - - WNW 7 11 4 6 1007.6 1007.5 -
06/10:30am - - - - - W 6 9 3 5 1007.6 1007.5 -
06/10:00am - - - - - W 6 9 3 5 1007.7 1007.6 -
06/09:30am - - - - - N 7 13 4 7 1007.6 1007.5 -

Other formats

Comma delimited format used in spreadsheet applications
http://www.bom.gov.au/fwo/IDD60801/IDD60801.95122.axf

JavaScript Object Notation format (JSON) in row-major order
http://www.bom.gov.au/fwo/IDD60801/IDD60801.95122.json

Data quality

Most of these data are generated automatically and are frequently updated. Quality checks on data are not normally performed. It is possible for incorrect values to appear. Refer to information at About Latest Weather Observations and please check the disclaimer before using these data.